createdAt,value
2022-10-17T00:01:06.833Z,29.70
2022-10-17T00:03:38.423Z,29.40
2022-10-17T00:06:14.943Z,31.80
2022-10-17T00:08:44.347Z,30.60
2022-10-17T00:11:18.770Z,30.70
2022-10-17T00:13:48.304Z,30.70
2022-10-17T00:16:26.323Z,31.30
2022-10-17T00:18:54.785Z,29.20
2022-10-17T00:21:23.217Z,30.30
2022-10-17T00:23:52.698Z,30.50
2022-10-17T00:26:21.030Z,29.80
2022-10-17T00:28:52.381Z,32.00
2022-10-17T00:31:21.709Z,32.10
2022-10-17T00:33:52.127Z,31.30
2022-10-17T00:36:23.681Z,30.60
2022-10-17T00:38:59.449Z,30.60
2022-10-17T00:41:30.811Z,29.80
2022-10-17T00:44:00.990Z,29.80
2022-10-17T00:46:37.975Z,29.70
2022-10-17T00:49:09.570Z,29.80
2022-10-17T00:51:46.567Z,29.80
2022-10-17T00:54:17.578Z,29.70
2022-10-17T00:56:47.909Z,29.10
2022-10-17T00:59:17.868Z,30.00
2022-10-17T01:01:55.328Z,30.10
2022-10-17T01:04:24.343Z,30.60
2022-10-17T01:06:54.885Z,31.00
2022-10-17T01:09:23.339Z,28.40
2022-10-17T01:12:21.269Z,29.70
2022-10-17T01:14:58.278Z,30.30
2022-10-17T01:17:44.802Z,30.50
2022-10-17T01:20:41.508Z,31.20
2022-10-17T01:23:51.157Z,29.80
2022-10-17T01:26:57.681Z,30.60
2022-10-17T01:29:59.811Z,30.10
2022-10-17T01:32:40.768Z,31.20
2022-10-17T01:35:20.877Z,28.40
2022-10-17T01:38:04.786Z,29.30
2022-10-17T01:40:51.341Z,30.00
2022-10-17T01:43:28.769Z,30.10
2022-10-17T01:46:13.570Z,29.70
2022-10-17T01:51:21.525Z,28.50
2022-10-17T01:53:54.595Z,28.40
2022-10-17T01:56:27.480Z,29.00
2022-10-17T01:59:01.823Z,29.90
2022-10-17T02:01:34.642Z,29.50
2022-10-17T02:04:05.760Z,28.90
2022-10-17T02:06:38.103Z,27.40
2022-10-17T02:09:25.915Z,28.10
2022-10-17T02:12:09.285Z,27.40
2022-10-17T02:14:55.563Z,29.30
2022-10-17T02:17:44.622Z,29.70
2022-10-17T02:20:34.583Z,27.50
2022-10-17T02:23:27.687Z,27.60
2022-10-17T02:26:09.422Z,28.20
2022-10-17T02:29:12.197Z,27.80
2022-10-17T02:31:53.814Z,27.70
2022-10-17T02:34:36.904Z,28.00
2022-10-17T02:37:08.637Z,28.70
2022-10-17T02:39:40.101Z,28.90
2022-10-17T02:42:12.487Z,27.30
2022-10-17T02:44:43.398Z,28.30
2022-10-17T02:47:44.576Z,27.90
2022-10-17T02:50:12.417Z,27.20
2022-10-17T02:52:51.943Z,28.20
2022-10-17T02:55:29.092Z,27.30
2022-10-17T02:58:06.736Z,26.50
2022-10-17T03:00:40.733Z,27.80
2022-10-17T03:03:27.499Z,27.60
2022-10-17T03:05:55.689Z,27.90
2022-10-17T03:08:25.181Z,27.00
2022-10-17T03:10:53.888Z,28.00
2022-10-17T03:13:22.269Z,26.80
2022-10-17T03:15:51.298Z,27.70
2022-10-17T03:18:19.460Z,27.60
2022-10-17T03:20:47.753Z,27.40
2022-10-17T03:23:15.744Z,27.70
2022-10-17T03:25:43.504Z,28.20
2022-10-17T03:28:12.727Z,27.60
2022-10-17T03:30:40.509Z,27.50
2022-10-17T03:33:08.387Z,26.10
2022-10-17T03:35:40.424Z,26.40
2022-10-17T03:38:08.789Z,28.00
2022-10-17T03:40:37.763Z,27.10
2022-10-17T03:43:06.069Z,27.20
2022-10-17T03:45:33.810Z,27.70
2022-10-17T03:48:02.224Z,27.60
2022-10-17T03:50:30.681Z,28.10
2022-10-17T03:52:59.217Z,27.50
2022-10-17T03:55:27.840Z,27.90
2022-10-17T03:57:56.581Z,27.50
2022-10-17T04:00:24.886Z,27.10
2022-10-17T04:02:55.662Z,26.80
2022-10-17T04:05:23.901Z,27.70
2022-10-17T04:07:52.047Z,28.90
2022-10-17T04:10:23.097Z,28.80
2022-10-17T04:12:51.482Z,29.30
2022-10-17T04:15:19.590Z,28.40
2022-10-17T04:17:48.650Z,29.50
2022-10-17T04:20:17.172Z,28.40
2022-10-17T04:22:46.344Z,28.10
2022-10-17T04:25:14.950Z,29.20
2022-10-17T04:27:49.350Z,30.10
2022-10-17T04:30:17.477Z,29.60
2022-10-17T04:32:45.981Z,28.90
2022-10-17T04:35:18.302Z,29.40
2022-10-17T04:37:51.312Z,29.70
2022-10-17T04:40:30.139Z,29.20
2022-10-17T04:42:58.020Z,29.70
2022-10-17T04:45:31.428Z,30.60
2022-10-17T04:48:04.088Z,30.70
2022-10-17T04:50:32.476Z,28.20
2022-10-17T04:53:19.232Z,29.50
2022-10-17T04:55:48.784Z,32.40
2022-10-17T04:58:17.536Z,32.90
2022-10-17T05:00:45.748Z,31.90
2022-10-17T05:03:23.397Z,31.10
2022-10-17T05:05:51.234Z,32.20
2022-10-17T05:08:19.448Z,32.10
2022-10-17T05:10:50.121Z,31.60
2022-10-17T05:13:17.975Z,30.80
2022-10-17T05:15:47.594Z,30.00
2022-10-17T05:18:16.596Z,31.10
2022-10-17T05:20:46.046Z,31.60
2022-10-17T05:23:16.760Z,32.10
2022-10-17T05:25:46.800Z,35.40
2022-10-17T05:28:14.637Z,43.90
2022-10-17T05:30:43.310Z,47.20
2022-10-17T05:33:11.782Z,51.70
2022-10-17T05:35:41.642Z,50.70
2022-10-17T05:38:13.507Z,48.30
2022-10-17T05:40:44.351Z,46.50
2022-10-17T05:43:12.589Z,46.10
2022-10-17T05:45:41.994Z,41.10
2022-10-17T05:48:13.024Z,40.30
2022-10-17T05:50:40.752Z,34.20
2022-10-17T05:53:16.849Z,34.50
2022-10-17T05:55:56.127Z,35.30
2022-10-17T06:01:25.034Z,36.50
2022-10-17T06:03:53.442Z,36.00
2022-10-17T06:06:22.867Z,35.80
2022-10-17T06:08:51.636Z,36.20
2022-10-17T06:11:26.560Z,33.70
2022-10-17T06:13:55.040Z,31.90
2022-10-17T06:16:26.642Z,31.40
2022-10-17T06:18:54.934Z,31.00
2022-10-17T06:21:25.415Z,31.50
2022-10-17T06:23:57.315Z,31.20
2022-10-17T06:26:37.467Z,30.30
2022-10-17T06:29:08.241Z,29.30
2022-10-17T06:31:41.229Z,28.40
2022-10-17T06:34:09.098Z,25.70
2022-10-17T06:36:39.071Z,26.60
2022-10-17T06:39:07.760Z,26.50
2022-10-17T06:41:46.088Z,25.30
2022-10-17T06:44:19.151Z,25.20
2022-10-17T06:47:13.433Z,25.40
2022-10-17T06:49:45.881Z,25.10
2022-10-17T06:52:26.952Z,24.60
2022-10-17T06:55:21.427Z,23.80
2022-10-17T06:58:03.319Z,24.10
2022-10-17T07:00:46.676Z,22.20
2022-10-17T07:03:16.557Z,22.60
2022-10-17T07:05:52.326Z,23.60
2022-10-17T07:08:20.389Z,22.70
2022-10-17T07:10:48.233Z,21.60
2022-10-17T07:13:16.386Z,20.70
2022-10-17T07:15:44.289Z,20.30
2022-10-17T07:18:12.673Z,20.50
2022-10-17T07:20:40.571Z,19.20
2022-10-17T07:23:08.538Z,19.40
2022-10-17T07:25:40.096Z,19.40
2022-10-17T07:28:09.896Z,19.80
2022-10-17T07:30:39.535Z,18.50
2022-10-17T07:33:11.417Z,18.50
2022-10-17T07:35:43.468Z,17.90
2022-10-17T07:38:12.033Z,16.20
2022-10-17T07:40:39.826Z,17.40
2022-10-17T07:43:07.954Z,17.80
2022-10-17T07:45:36.804Z,17.10
2022-10-17T07:48:06.370Z,17.10
2022-10-17T07:50:35.247Z,17.30
2022-10-17T07:53:18.199Z,17.00
2022-10-17T07:55:59.821Z,16.70
2022-10-17T07:58:48.188Z,16.70
2022-10-17T08:01:17.580Z,17.20
2022-10-17T08:03:47.267Z,16.80
2022-10-17T08:06:15.750Z,17.70
2022-10-17T08:08:44.429Z,18.20
2022-10-17T08:11:14.401Z,16.30
2022-10-17T08:13:42.571Z,16.30
2022-10-17T08:16:13.576Z,16.80
2022-10-17T08:18:43.090Z,15.80
2022-10-17T08:21:13.554Z,15.40
2022-10-17T08:23:41.834Z,15.60
2022-10-17T08:26:13.359Z,14.70
2022-10-17T08:28:42.061Z,15.50
2022-10-17T08:31:12.648Z,16.00
2022-10-17T08:33:42.439Z,16.30
2022-10-17T08:36:14.783Z,15.80
2022-10-17T08:38:43.902Z,16.10
2022-10-17T08:41:38.620Z,14.70
2022-10-17T08:44:19.543Z,15.00
2022-10-17T08:46:50.183Z,14.90
2022-10-17T08:49:57.431Z,15.10
2022-10-17T08:52:45.507Z,15.70
2022-10-17T08:55:41.331Z,14.70
2022-10-17T08:58:14.948Z,15.50
2022-10-17T09:00:52.994Z,16.20
2022-10-17T09:03:51.605Z,15.20
2022-10-17T09:06:57.109Z,15.20
2022-10-17T09:09:45.401Z,14.60
2022-10-17T09:12:21.077Z,14.20
2022-10-17T09:15:36.889Z,14.30
2022-10-17T09:18:21.193Z,14.70
2022-10-17T09:20:58.144Z,14.60
2022-10-17T09:23:30.585Z,14.90
2022-10-17T09:26:00.754Z,14.20
2022-10-17T09:28:34.987Z,14.60
2022-10-17T09:31:27.133Z,13.80
2022-10-17T09:33:57.160Z,14.60
2022-10-17T09:36:37.810Z,14.10
2022-10-17T09:39:13.298Z,15.00
2022-10-17T09:41:50.323Z,14.60
2022-10-17T09:44:26.358Z,13.70
2022-10-17T09:47:08.176Z,14.30
2022-10-17T09:49:39.776Z,13.20
2022-10-17T09:52:21.706Z,14.00
2022-10-17T09:54:56.106Z,13.50
2022-10-17T09:57:25.622Z,12.60
2022-10-17T10:00:02.683Z,13.00
2022-10-17T10:02:36.441Z,12.80
2022-10-17T10:07:38.448Z,13.40
2022-10-17T10:10:25.445Z,13.00
2022-10-17T10:13:15.953Z,12.30
2022-10-17T10:15:45.896Z,12.10
2022-10-17T10:18:26.107Z,14.00
2022-10-17T10:21:09.755Z,12.60
2022-10-17T10:23:45.437Z,12.50
2022-10-17T10:26:22.508Z,12.80
2022-10-17T10:28:58.113Z,13.20
2022-10-17T10:31:33.604Z,14.60
2022-10-17T10:34:13.645Z,14.00
2022-10-17T10:37:03.095Z,13.70
2022-10-17T10:39:50.076Z,38.90
2022-10-17T10:42:37.637Z,32.00
2022-10-17T10:48:25.911Z,16.20
2022-10-17T10:51:01.948Z,19.50
2022-10-17T10:53:52.753Z,35.40
2022-10-17T10:56:40.802Z,51.10
2022-10-17T10:59:09.323Z,36.00
2022-10-17T11:02:00.438Z,30.30
2022-10-17T11:04:31.539Z,33.90
2022-10-17T11:07:06.380Z,58.60
2022-10-17T11:09:49.281Z,63.00
2022-10-17T11:12:20.815Z,34.90
2022-10-17T11:14:57.972Z,47.40
2022-10-17T11:17:43.288Z,41.80
2022-10-17T11:20:25.972Z,27.40
2022-10-17T11:23:21.426Z,18.60
2022-10-17T11:25:51.978Z,22.70
2022-10-17T11:28:23.175Z,21.70
2022-10-17T11:31:04.537Z,14.70
2022-10-17T11:33:58.369Z,19.20
2022-10-17T11:36:31.646Z,29.90
2022-10-17T11:39:09.281Z,30.60
2022-10-17T11:42:13.180Z,36.80
2022-10-17T11:44:42.573Z,19.30
2022-10-17T11:47:16.524Z,14.00
2022-10-17T11:49:55.309Z,24.90
2022-10-17T11:55:29.868Z,13.00
2022-10-17T11:58:30.763Z,9.50
2022-10-17T12:01:19.057Z,12.30
2022-10-17T12:04:02.866Z,10.70
2022-10-17T12:06:52.547Z,8.40
2022-10-17T12:09:42.472Z,9.50
2022-10-17T12:12:10.256Z,10.70
2022-10-17T12:14:48.135Z,8.50
2022-10-17T12:17:39.317Z,9.20
2022-10-17T12:20:27.565Z,17.40
2022-10-17T12:23:10.552Z,15.80
2022-10-17T12:25:48.577Z,12.00
2022-10-17T12:28:23.706Z,15.60
2022-10-17T12:30:59.322Z,10.60
2022-10-17T12:33:52.137Z,9.00
2022-10-17T12:36:22.915Z,14.40
2022-10-17T12:39:08.815Z,13.00
2022-10-17T12:41:39.714Z,10.60
2022-10-17T12:44:14.702Z,15.90
2022-10-17T12:46:58.164Z,13.20
2022-10-17T12:49:41.445Z,9.10
2022-10-17T12:52:58.263Z,12.20
2022-10-17T12:55:26.881Z,10.00
2022-10-17T12:58:05.589Z,8.60
2022-10-17T13:01:22.467Z,8.60
2022-10-17T13:03:49.197Z,8.80
2022-10-17T13:06:24.883Z,10.30
2022-10-17T13:09:06.249Z,9.30
2022-10-17T13:11:37.964Z,9.00
2022-10-17T13:14:13.137Z,8.10
2022-10-17T13:16:55.011Z,8.20
2022-10-17T13:19:26.010Z,11.10
2022-10-17T13:22:06.701Z,9.40
2022-10-17T13:24:40.824Z,8.20
2022-10-17T13:27:32.391Z,9.30
2022-10-17T13:30:12.296Z,7.60
2022-10-17T13:32:45.129Z,9.60
2022-10-17T13:35:24.412Z,9.10
2022-10-17T13:37:54.273Z,7.30
2022-10-17T13:40:44.589Z,9.00
2022-10-17T13:43:24.673Z,7.90
2022-10-17T13:45:56.432Z,8.80
2022-10-17T13:48:28.533Z,8.30
2022-10-17T13:51:02.780Z,10.40
2022-10-17T13:53:39.966Z,8.00
2022-10-17T13:56:28.006Z,9.80
2022-10-17T13:59:00.328Z,7.70
2022-10-17T14:01:29.811Z,10.00
2022-10-17T14:04:09.000Z,8.10
2022-10-17T14:06:49.329Z,7.20
2022-10-17T14:09:27.102Z,8.90
2022-10-17T14:12:11.142Z,8.00
2022-10-17T14:15:05.139Z,9.30
2022-10-17T14:17:30.727Z,10.20
2022-10-17T14:20:29.686Z,9.90
2022-10-17T14:23:21.588Z,10.00
2022-10-17T14:25:46.896Z,9.00
2022-10-17T14:28:35.094Z,9.60
2022-10-17T14:31:16.068Z,9.50
2022-10-17T14:33:50.486Z,8.20
2022-10-17T14:36:21.603Z,9.50
2022-10-17T14:38:52.104Z,9.30
2022-10-17T14:41:42.839Z,8.90
2022-10-17T14:44:20.784Z,9.20
2022-10-17T14:46:53.563Z,8.50
2022-10-17T14:49:27.742Z,9.10
2022-10-17T14:52:18.810Z,9.40
2022-10-17T14:54:49.214Z,9.30
2022-10-17T14:57:45.441Z,9.10
2022-10-17T15:00:18.605Z,9.30
2022-10-17T15:02:48.873Z,10.00
2022-10-17T15:05:19.849Z,9.20
2022-10-17T15:07:48.776Z,9.80
2022-10-17T15:10:34.200Z,10.10
2022-10-17T15:13:27.134Z,11.90
2022-10-17T15:15:52.387Z,15.00
2022-10-17T15:18:21.982Z,12.90
2022-10-17T15:20:55.456Z,11.90
2022-10-17T15:23:42.614Z,9.70
2022-10-17T15:26:26.675Z,11.70
2022-10-17T15:28:54.602Z,10.60
2022-10-17T15:31:24.728Z,11.60
2022-10-17T15:33:53.240Z,10.00
2022-10-17T15:36:40.796Z,10.20
2022-10-17T15:39:10.815Z,10.80
2022-10-17T15:41:38.709Z,13.20
2022-10-17T15:44:06.631Z,14.80
2022-10-17T15:46:36.155Z,12.30
2022-10-17T15:49:07.754Z,11.70
2022-10-17T15:51:36.842Z,10.70
2022-10-17T15:54:05.829Z,11.50
2022-10-17T15:56:45.820Z,12.20
2022-10-17T15:59:22.640Z,11.20
2022-10-17T16:01:50.833Z,12.30
2022-10-17T16:04:24.007Z,11.90
2022-10-17T16:06:52.064Z,12.80
2022-10-17T16:09:22.864Z,14.30
2022-10-17T16:11:50.859Z,13.70
2022-10-17T16:14:18.653Z,13.60
2022-10-17T16:16:47.126Z,13.00
2022-10-17T16:19:18.820Z,12.70
2022-10-17T16:21:46.598Z,12.20
2022-10-17T16:24:14.823Z,12.50
2022-10-17T16:26:42.546Z,14.80
2022-10-17T16:29:11.647Z,13.30
2022-10-17T16:31:43.696Z,12.30
2022-10-17T16:34:14.018Z,12.00
2022-10-17T16:36:42.796Z,12.60
2022-10-17T16:39:10.572Z,12.50
2022-10-17T16:41:39.571Z,12.30
2022-10-17T16:44:10.891Z,11.00
2022-10-17T16:46:38.965Z,11.10
2022-10-17T16:49:08.315Z,12.50
2022-10-17T16:51:36.703Z,11.70
2022-10-17T16:54:04.808Z,11.20
2022-10-17T16:56:33.736Z,11.70
2022-10-17T16:59:01.856Z,12.00
2022-10-17T17:01:29.686Z,11.80
2022-10-17T17:03:58.415Z,11.80
2022-10-17T17:06:30.853Z,11.80
2022-10-17T17:08:59.099Z,11.60
2022-10-17T17:11:28.637Z,11.30
2022-10-17T17:13:58.371Z,11.80
2022-10-17T17:16:29.403Z,11.90
2022-10-17T17:19:00.623Z,11.60
2022-10-17T17:21:29.041Z,12.40
2022-10-17T17:24:00.501Z,12.30
2022-10-17T17:26:32.294Z,11.90
2022-10-17T17:29:00.893Z,13.10
2022-10-17T17:31:32.343Z,13.70
2022-10-17T17:34:01.198Z,12.70
2022-10-17T17:36:34.001Z,12.00
2022-10-17T17:39:09.622Z,13.10
2022-10-17T17:41:46.345Z,11.80
2022-10-17T17:44:16.985Z,10.90
2022-10-17T17:46:47.827Z,12.40
2022-10-17T17:49:15.740Z,10.80
2022-10-17T17:51:47.842Z,11.10
2022-10-17T17:54:16.250Z,11.90
2022-10-17T17:56:44.009Z,10.90
2022-10-17T17:59:14.505Z,10.50
2022-10-17T18:01:46.168Z,10.40
2022-10-17T18:04:16.506Z,10.30
2022-10-17T18:06:46.948Z,10.40
2022-10-17T18:09:14.760Z,11.30
2022-10-17T18:11:44.951Z,10.50
2022-10-17T18:14:13.987Z,11.70
2022-10-17T18:16:42.450Z,12.50
2022-10-17T18:19:12.070Z,12.40
2022-10-17T18:21:40.152Z,12.40
2022-10-17T18:24:08.867Z,11.60
2022-10-17T18:26:36.951Z,11.90
2022-10-17T18:29:05.264Z,11.50
2022-10-17T18:31:36.011Z,11.10
2022-10-17T18:34:06.960Z,10.80
2022-10-17T18:36:39.066Z,10.60
2022-10-17T18:39:07.144Z,12.00
2022-10-17T18:41:35.644Z,11.00
2022-10-17T18:44:05.272Z,12.70
2022-10-17T18:46:40.258Z,11.40
2022-10-17T18:49:11.786Z,10.50
2022-10-17T18:51:41.695Z,12.90
2022-10-17T18:54:21.157Z,12.00
2022-10-17T18:56:52.260Z,11.90
2022-10-17T18:59:21.150Z,15.00
2022-10-17T19:01:49.350Z,13.30
2022-10-17T19:04:17.821Z,13.30
2022-10-17T19:06:46.671Z,13.10
2022-10-17T19:09:17.030Z,11.80
2022-10-17T19:11:46.828Z,12.00
2022-10-17T19:14:15.360Z,11.90
2022-10-17T19:16:46.515Z,11.50
2022-10-17T19:19:17.969Z,11.40
2022-10-17T19:21:46.298Z,10.70
2022-10-17T19:24:24.870Z,12.00
2022-10-17T19:26:54.959Z,13.70
2022-10-17T19:29:28.319Z,11.20
2022-10-17T19:31:57.588Z,11.50
2022-10-17T19:34:27.957Z,13.90
2022-10-17T19:36:56.441Z,14.00
2022-10-17T19:39:25.268Z,12.50
2022-10-17T19:41:53.032Z,12.60
2022-10-17T19:44:20.976Z,11.40
2022-10-17T19:46:49.390Z,11.40
2022-10-17T19:49:17.803Z,11.70
2022-10-17T19:51:46.037Z,10.40
2022-10-17T19:54:16.685Z,10.80
2022-10-17T19:56:46.284Z,11.30
2022-10-17T19:59:16.104Z,10.30
2022-10-17T20:01:45.092Z,11.10
2022-10-17T20:04:14.480Z,10.80
2022-10-17T20:06:42.324Z,10.20
2022-10-17T20:09:15.646Z,10.70
2022-10-17T20:11:49.204Z,10.10
2022-10-17T20:14:17.304Z,10.60
2022-10-17T20:16:49.986Z,10.30
2022-10-17T20:19:18.271Z,10.40
2022-10-17T20:21:46.159Z,10.30
2022-10-17T20:24:16.224Z,10.40
2022-10-17T20:26:45.565Z,10.10
2022-10-17T20:29:20.068Z,9.90
2022-10-17T20:31:49.733Z,9.40
2022-10-17T20:34:18.691Z,8.80
2022-10-17T20:36:47.024Z,10.60
2022-10-17T20:39:16.574Z,10.50
2022-10-17T20:41:45.778Z,11.00
2022-10-17T20:44:13.737Z,8.80
2022-10-17T20:46:48.682Z,9.10
2022-10-17T20:49:22.227Z,8.80
2022-10-17T20:51:49.958Z,8.60
2022-10-17T20:54:17.732Z,8.60
2022-10-17T20:56:45.493Z,8.20
2022-10-17T20:59:17.921Z,8.40
2022-10-17T21:01:46.240Z,7.70
2022-10-17T21:04:44.822Z,8.00
2022-10-17T21:07:03.737Z,7.20
2022-10-17T21:09:32.842Z,7.70
2022-10-17T21:17:05.404Z,7.80
2022-10-17T21:19:33.969Z,8.20
2022-10-17T21:22:02.089Z,7.90
2022-10-17T21:24:30.997Z,9.20
2022-10-17T21:26:58.954Z,7.90
2022-10-17T21:29:27.890Z,7.30
2022-10-17T21:31:55.695Z,7.60
2022-10-17T21:34:25.206Z,7.00
2022-10-17T21:36:53.279Z,6.70
2022-10-17T21:39:22.969Z,7.20
2022-10-17T21:41:51.854Z,6.60
2022-10-17T21:44:22.584Z,6.40
2022-10-17T21:46:51.431Z,6.80
2022-10-17T21:49:21.748Z,6.70
2022-10-17T21:51:50.442Z,6.30
2022-10-17T21:54:20.007Z,7.10
2022-10-17T21:56:47.823Z,7.10
2022-10-17T21:59:17.119Z,6.20
2022-10-17T22:01:46.333Z,6.60
2022-10-17T22:04:16.335Z,6.60
2022-10-17T22:06:47.940Z,8.00
2022-10-17T22:09:20.364Z,8.50
2022-10-17T22:11:51.646Z,8.90
2022-10-17T22:14:21.491Z,8.20
2022-10-17T22:16:50.926Z,7.90
2022-10-17T22:19:22.609Z,7.80
2022-10-17T22:21:50.757Z,7.60
2022-10-17T22:26:49.090Z,7.20
2022-10-17T22:29:17.195Z,7.40
2022-10-17T22:31:45.133Z,7.50
2022-10-17T22:34:15.100Z,7.10
2022-10-17T22:36:43.323Z,7.40
2022-10-17T22:39:11.591Z,6.90
2022-10-17T22:41:39.813Z,7.00
2022-10-17T22:44:07.869Z,7.00
2022-10-17T22:46:36.681Z,7.40
2022-10-17T22:49:06.129Z,7.30
2022-10-17T22:51:33.955Z,7.90
2022-10-17T22:54:01.739Z,7.70
2022-10-17T22:56:29.822Z,7.70
2022-10-17T22:58:58.173Z,7.80
2022-10-17T23:01:27.583Z,7.40
2022-10-17T23:03:55.395Z,8.40
2022-10-17T23:06:23.876Z,8.50
2022-10-17T23:08:52.542Z,7.80
2022-10-17T23:11:21.119Z,7.60
2022-10-17T23:13:49.114Z,7.60
2022-10-17T23:16:17.265Z,7.60
2022-10-17T23:18:45.225Z,7.90
2022-10-17T23:21:15.952Z,7.70
2022-10-17T23:23:46.008Z,7.20
2022-10-17T23:26:15.249Z,7.50
2022-10-17T23:28:43.356Z,7.60
2022-10-17T23:31:14.329Z,7.20
2022-10-17T23:33:52.251Z,7.50
2022-10-17T23:36:21.496Z,7.10
2022-10-17T23:38:51.741Z,7.80
2022-10-17T23:41:22.673Z,7.60
2022-10-17T23:43:51.337Z,7.40
2022-10-17T23:46:19.760Z,7.30
2022-10-17T23:48:47.581Z,7.60
2022-10-17T23:51:15.685Z,7.70
2022-10-17T23:53:44.563Z,7.90
2022-10-17T23:56:12.397Z,7.60
2022-10-17T23:58:40.216Z,7.10
